Time;durP1;ratioP1;P1;durP2;ratioP2;P2;SDS_P1;SDS_P2;PMS_P1;PMS_P2;Temp;Humidity;BMP_temperature;BMP_pressure;BME280_temperature;BME280_humidity;BME280_pressure;Samples;Min_cycle;Max_cycle;Signal;HPM_P1;HPM_P2
2021/01/04 00:00:26;;;;;;;38.35;23.85;;;;;;;;;;5057187;28;20021;-56
2021/01/04 00:03:10;;;;;;;30.00;18.67;;;;;;;;;;5058467;28;20396;-57
2021/01/04 00:05:40;;;;;;;28.02;17.95;;;;;;;;;;5045519;28;20122;-55
2021/01/04 00:08:24;;;;;;;25.50;16.20;;;;;;;;;;5057653;28;20025;-57
2021/01/04 00:10:56;;;;;;;20.38;13.70;;;;;;;;;;5058331;28;20400;-56
2021/01/04 00:13:36;;;;;;;27.50;17.98;;;;;;;;;;5077258;28;20450;-57
2021/01/04 00:16:12;;;;;;;23.77;15.43;;;;;;;;;;5061661;28;20027;-56
2021/01/04 00:18:38;;;;;;;29.08;16.52;;;;;;;;;;5064831;28;20494;-57
2021/01/04 00:21:10;;;;;;;28.13;16.67;;;;;;;;;;5075149;28;20091;-57
2021/01/04 00:23:36;;;;;;;;;;;;;;;;;;5057647;28;20036;-55
2021/01/04 00:26:10;;;;;;;23.65;14.52;;;;;;;;;;5070305;28;19909;-56
2021/01/04 00:28:37;;;;;;;25.75;14.18;;;;;;;;;;5054917;28;20552;-56
2021/01/04 00:31:03;;;;;;;22.60;14.05;;;;;;;;;;5058179;28;20052;-56
2021/01/04 00:33:35;;;;;;;51.55;28.42;;;;;;;;;;5077336;28;20476;-57
2021/01/04 00:36:02;;;;;;;79.47;43.15;;;;;;;;;;5078949;28;20028;-57
2021/01/04 00:38:34;;;;;;;90.53;47.72;;;;;;;;;;5071334;28;20029;-58
2021/01/04 00:41:10;;;;;;;55.33;31.83;;;;;;;;;;5074967;28;20021;-58
2021/01/04 00:43:36;;;;;;;55.25;31.70;;;;;;;;;;5067400;28;20032;-57
2021/01/04 00:46:02;;;;;;;46.53;26.90;;;;;;;;;;5073210;28;20020;-57
2021/01/04 00:48:28;;;;;;;33.38;18.63;;;;;;;;;;5073144;28;20078;-56
2021/01/04 00:51:04;;;;;;;23.38;14.40;;;;;;;;;;5075137;28;20103;-57
2021/01/04 00:53:42;;;;;;;18.35;12.07;;;;;;;;;;5073088;28;20033;-56
2021/01/04 00:56:18;;;;;;;16.52;11.02;;;;;;;;;;5071036;28;20074;-55
2021/01/04 00:58:44;;;;;;;17.02;11.35;;;;;;;;;;5067365;28;20033;-58
2021/01/04 01:01:15;;;;;;;20.65;12.10;;;;;;;;;;5068046;28;20028;-57
2021/01/04 01:03:41;;;;;;;19.20;11.13;;;;;;;;;;5055097;28;20366;-57
2021/01/04 01:06:24;;;;;;;17.80;11.25;;;;;;;;;;5069866;28;20323;-58
2021/01/04 01:08:54;;;;;;;19.20;10.32;;;;;;;;;;5074317;28;20430;-58
2021/01/04 01:11:35;;;;;;;18.67;10.95;;;;;;;;;;5068752;28;20066;-58
2021/01/04 01:14:01;;;;;;;19.02;10.65;;;;;;;;;;5073006;28;20040;-57
2021/01/04 01:16:27;;;;;;;18.75;11.25;;;;;;;;;;5074627;28;20024;-57
2021/01/04 01:19:02;;;;;;;18.58;10.88;;;;;;;;;;5074319;28;20107;-58
2021/01/04 01:21:28;;;;;;;16.08;10.77;;;;;;;;;;5073301;28;20037;-57
2021/01/04 01:23:56;;;;;;;18.35;10.32;;;;;;;;;;5073879;28;20036;-57
2021/01/04 01:26:54;;;;;;;17.92;10.43;;;;;;;;;;5074185;28;20031;-57
2021/01/04 01:29:26;;;;;;;16.70;10.02;;;;;;;;;;4973181;28;20135;-56
2021/01/04 01:32:14;;;;;;;17.60;10.27;;;;;;;;;;4966800;28;20042;-56
2021/01/04 01:35:03;;;;;;;15.85;10.15;;;;;;;;;;4967961;28;20123;-56
2021/01/04 01:37:41;;;;;;;16.95;10.02;;;;;;;;;;4972711;28;20513;-57
2021/01/04 01:40:26;;;;;;;15.40;9.80;;;;;;;;;;4969211;28;20047;-56
2021/01/04 01:43:04;;;;;;;17.83;9.95;;;;;;;;;;4969438;28;20093;-57
2021/01/04 01:45:34;;;;;;;15.75;10.15;;;;;;;;;;4973200;28;20042;-56
2021/01/04 01:48:03;;;;;;;15.00;9.70;;;;;;;;;;4972910;28;20043;-57
2021/01/04 01:50:49;;;;;;;16.60;9.85;;;;;;;;;;4973023;28;20117;-56
2021/01/04 01:53:15;;;;;;;16.02;10.13;;;;;;;;;;4972258;28;20110;-56
2021/01/04 01:55:41;;;;;;;14.63;9.88;;;;;;;;;;4972865;28;20043;-57
2021/01/04 01:58:17;;;;;;;15.02;9.70;;;;;;;;;;4970687;28;20046;-57
2021/01/04 02:00:56;;;;;;;15.43;10.00;;;;;;;;;;4966437;28;20117;-57
2021/01/04 02:03:22;;;;;;;14.93;9.90;;;;;;;;;;4971179;28;20547;-56
2021/01/04 02:05:58;;;;;;;16.77;9.25;;;;;;;;;;5043102;28;20381;-57
2021/01/04 02:08:28;;;;;;;17.17;9.75;;;;;;;;;;5053537;28;20739;-56
2021/01/04 02:10:56;;;;;;;17.42;10.07;;;;;;;;;;5055188;28;20029;-57
2021/01/04 02:13:28;;;;;;;15.82;10.50;;;;;;;;;;5060664;28;20024;-56
2021/01/04 02:15:59;;;;;;;14.40;9.27;;;;;;;;;;5053798;28;20020;-57
2021/01/04 02:18:26;;;;;;;17.40;10.32;;;;;;;;;;5056796;28;20035;-58
2021/01/04 02:20:54;;;;;;;16.65;10.50;;;;;;;;;;5055998;28;20023;-58
2021/01/04 02:23:26;;;;;;;14.63;9.20;;;;;;;;;;5045912;28;20026;-56
2021/01/04 02:25:53;;;;;;;15.63;9.70;;;;;;;;;;5049124;28;20124;-56
2021/01/04 02:28:23;;;;;;;15.85;10.15;;;;;;;;;;5053591;28;20021;-55
2021/01/04 02:30:49;;;;;;;15.35;10.23;;;;;;;;;;5055221;28;20033;-56
2021/01/04 02:33:16;;;;;;;17.52;10.52;;;;;;;;;;5036335;28;20064;-56
2021/01/04 02:35:43;;;;;;;17.83;10.00;;;;;;;;;;5054937;28;20480;-57
2021/01/04 02:38:09;;;;;;;15.80;10.18;;;;;;;;;;5071915;28;20028;-57
2021/01/04 02:40:36;;;;;;;16.75;10.93;;;;;;;;;;5072476;28;20055;-57
2021/01/04 02:43:02;;;;;;;16.90;10.40;;;;;;;;;;5072476;28;20376;-56
2021/01/04 02:45:30;;;;;;;16.70;10.02;;;;;;;;;;5054654;28;20479;-57
2021/01/04 02:48:08;;;;;;;17.48;10.85;;;;;;;;;;5072267;28;20031;-58
2021/01/04 02:50:44;;;;;;;17.75;10.18;;;;;;;;;;5072442;28;20476;-57
2021/01/04 02:53:36;;;;;;;16.98;10.45;;;;;;;;;;5072165;28;20044;-57
2021/01/04 02:56:14;;;;;;;17.73;10.82;;;;;;;;;;5072470;28;20083;-57
2021/01/04 02:59:05;;;;;;;18.15;10.77;;;;;;;;;;5072090;28;20066;-57
2021/01/04 03:01:36;;;;;;;18.35;10.40;;;;;;;;;;5071911;28;20082;-58
2021/01/04 03:04:02;;;;;;;18.20;10.57;;;;;;;;;;5072233;28;20020;-56
2021/01/04 03:06:54;;;;;;;17.02;11.02;;;;;;;;;;5072351;28;20488;-57
2021/01/04 03:09:21;;;;;;;18.88;10.38;;;;;;;;;;5057454;28;20059;-57
2021/01/04 03:11:47;;;;;;;17.95;11.00;;;;;;;;;;5072192;28;21967;-57
2021/01/04 03:14:16;;;;;;;17.75;10.10;;;;;;;;;;5072211;28;20032;-57
2021/01/04 03:16:42;;;;;;;17.33;10.93;;;;;;;;;;5072395;28;20078;-57
2021/01/04 03:19:11;;;;;;;17.48;10.55;;;;;;;;;;5058141;28;20032;-56
2021/01/04 03:21:37;;;;;;;17.83;10.52;;;;;;;;;;5072286;28;20476;-57
2021/01/04 03:24:05;;;;;;;17.40;10.52;;;;;;;;;;5071735;28;20491;-57
2021/01/04 03:26:57;;;;;;;17.10;10.80;;;;;;;;;;5072049;28;20036;-57
2021/01/04 03:29:23;;;;;;;16.17;10.05;;;;;;;;;;5053918;28;20051;-56
2021/01/04 03:31:49;;;;;;;17.95;10.60;;;;;;;;;;5077754;28;20112;-57
2021/01/04 03:34:16;;;;;;;17.17;10.68;;;;;;;;;;5071756;28;20071;-57
2021/01/04 03:36:42;;;;;;;20.05;11.85;;;;;;;;;;5073586;28;20070;-57
2021/01/04 03:39:08;;;;;;;20.45;10.90;;;;;;;;;;5071700;28;20060;-57
2021/01/04 03:41:34;;;;;;;17.25;11.25;;;;;;;;;;5075857;28;20032;-57
2021/01/04 03:44:00;;;;;;;19.83;12.00;;;;;;;;;;5075700;28;20585;-57
2021/01/04 03:46:26;;;;;;;19.10;11.32;;;;;;;;;;5075554;28;20098;-57
2021/01/04 03:48:52;;;;;;;19.48;11.70;;;;;;;;;;5075645;28;20036;-57
2021/01/04 03:51:18;;;;;;;19.35;11.90;;;;;;;;;;5075929;28;20017;-57
2021/01/04 03:53:44;;;;;;;21.95;12.77;;;;;;;;;;5075730;28;20037;-57
2021/01/04 03:56:20;;;;;;;19.08;12.20;;;;;;;;;;5075791;28;20086;-58
2021/01/04 03:58:46;;;;;;;19.33;12.18;;;;;;;;;;5075784;28;20064;-57
2021/01/04 04:01:12;;;;;;;21.75;13.50;;;;;;;;;;5077931;28;20020;-58
2021/01/04 04:03:38;;;;;;;21.73;13.07;;;;;;;;;;5075788;28;20027;-57
2021/01/04 04:06:04;;;;;;;19.95;12.77;;;;;;;;;;5075625;28;20463;-57
2021/01/04 04:08:30;;;;;;;22.98;12.55;;;;;;;;;;5075587;28;20028;-57
2021/01/04 04:10:57;;;;;;;21.95;13.20;;;;;;;;;;5075528;28;20430;-57
2021/01/04 04:13:23;;;;;;;21.35;13.32;;;;;;;;;;5075457;28;20107;-57
2021/01/04 04:15:49;;;;;;;19.88;12.77;;;;;;;;;;5075645;28;20016;-57
2021/01/04 04:18:15;;;;;;;21.35;12.63;;;;;;;;;;5071203;28;20388;-57
2021/01/04 04:20:41;;;;;;;18.90;12.07;;;;;;;;;;5075310;28;20040;-57
2021/01/04 04:23:07;;;;;;;20.50;12.05;;;;;;;;;;5075233;28;20183;-57
2021/01/04 04:25:33;;;;;;;17.60;11.77;;;;;;;;;;5075052;28;20045;-57
2021/01/04 04:27:59;;;;;;;20.83;11.88;;;;;;;;;;5075481;28;20036;-57
2021/01/04 04:30:26;;;;;;;19.05;11.85;;;;;;;;;;5075143;28;20476;-57
2021/01/04 04:32:53;;;;;;;19.63;11.75;;;;;;;;;;5061226;28;20536;-57
2021/01/04 04:35:19;;;;;;;18.70;11.68;;;;;;;;;;5075276;28;20376;-56
2021/01/04 04:37:45;;;;;;;19.52;12.02;;;;;;;;;;5075037;28;20026;-57
2021/01/04 04:40:20;;;;;;;18.90;11.48;;;;;;;;;;5078864;28;20095;-56
2021/01/04 04:42:47;;;;;;;20.58;11.43;;;;;;;;;;5077260;28;20117;-57
2021/01/04 04:45:20;;;;;;;18.08;12.10;;;;;;;;;;5075090;28;20090;-57
2021/01/04 04:48:05;;;;;;;19.23;12.15;;;;;;;;;;5075051;28;20039;-57
2021/01/04 04:50:31;;;;;;;19.10;11.45;;;;;;;;;;5074794;28;20373;-57
2021/01/04 04:53:13;;;;;;;21.52;11.98;;;;;;;;;;5074659;28;20028;-57
2021/01/04 04:55:48;;;;;;;20.90;12.27;;;;;;;;;;5074979;28;20035;-57
2021/01/04 04:58:14;;;;;;;21.73;12.75;;;;;;;;;;5074635;28;20029;-57
2021/01/04 05:00:59;;;;;;;19.58;12.65;;;;;;;;;;5074292;28;20031;-57
2021/01/04 05:03:31;;;;;;;24.65;13.32;;;;;;;;;;5074696;28;20434;-57
2021/01/04 05:06:07;;;;;;;22.30;13.57;;;;;;;;;;5074498;28;20039;-57
2021/01/04 05:08:46;;;;;;;23.15;13.63;;;;;;;;;;5074295;28;20103;-57
2021/01/04 05:11:13;;;;;;;21.50;13.77;;;;;;;;;;5074527;28;20024;-57
2021/01/04 05:13:44;;;;;;;22.75;13.82;;;;;;;;;;5073972;28;20036;-57
2021/01/04 05:16:12;;;;;;;21.80;13.77;;;;;;;;;;5074136;28;20461;-57
2021/01/04 05:18:39;;;;;;;21.27;13.38;;;;;;;;;;5073901;28;20033;-56
2021/01/04 05:21:05;;;;;;;22.58;12.93;;;;;;;;;;5073751;28;20013;-56
2021/01/04 05:23:49;;;;;;;19.02;12.82;;;;;;;;;;5061027;28;20503;-56
2021/01/04 05:26:38;;;;;;;21.73;13.32;;;;;;;;;;5062047;28;20048;-57
2021/01/04 05:29:10;;;;;;;24.08;14.27;;;;;;;;;;4989964;28;20054;-57
2021/01/04 05:31:45;;;;;;;22.38;13.05;;;;;;;;;;4992405;28;20065;-56
2021/01/04 05:34:23;;;;;;;21.10;12.52;;;;;;;;;;4992518;28;20506;-57
2021/01/04 05:37:08;;;;;;;22.90;13.88;;;;;;;;;;4992547;28;20069;-57
2021/01/04 05:39:52;;;;;;;21.52;13.25;;;;;;;;;;4992236;28;20494;-57
2021/01/04 05:42:37;;;;;;;20.45;12.93;;;;;;;;;;4979742;28;20108;-57
2021/01/04 05:45:23;;;;;;;19.45;12.32;;;;;;;;;;4991862;28;20153;-57
2021/01/04 05:47:58;;;;;;;18.88;11.93;;;;;;;;;;4988168;28;20039;-56
2021/01/04 05:50:43;;;;;;;19.73;11.85;;;;;;;;;;4990430;28;20038;-56
2021/01/04 05:53:09;;;;;;;18.80;11.93;;;;;;;;;;4989923;28;20050;-56
2021/01/04 05:55:35;;;;;;;21.25;11.90;;;;;;;;;;4991172;28;20026;-57
2021/01/04 05:58:12;;;;;;;18.35;11.93;;;;;;;;;;4982202;28;20030;-57
2021/01/04 06:00:38;;;;;;;18.33;11.90;;;;;;;;;;4991213;28;20038;-57
2021/01/04 06:03:08;;;;;;;19.25;11.50;;;;;;;;;;4991825;28;20101;-57
2021/01/04 06:05:35;;;;;;;21.42;12.65;;;;;;;;;;5009783;28;20040;-57
2021/01/04 06:08:01;;;;;;;18.55;11.90;;;;;;;;;;5071738;28;20016;-57
2021/01/04 06:10:31;;;;;;;17.90;11.30;;;;;;;;;;5073681;28;20791;-56
2021/01/04 06:13:01;;;;;;;18.17;11.40;;;;;;;;;;5074504;28;20032;-57
2021/01/04 06:15:28;;;;;;;21.23;11.23;;;;;;;;;;5075702;28;20497;-57
2021/01/04 06:18:00;;;;;;;19.85;11.30;;;;;;;;;;5073472;28;20028;-57
2021/01/04 06:20:39;;;;;;;19.00;11.35;;;;;;;;;;5073669;28;20027;-58
2021/01/04 06:23:14;;;;;;;17.88;11.35;;;;;;;;;;5072781;28;20032;-57
2021/01/04 06:25:40;;;;;;;20.02;12.10;;;;;;;;;;5072447;28;20048;-57
2021/01/04 06:28:06;;;;;;;16.25;11.05;;;;;;;;;;5072415;28;20426;-57
2021/01/04 06:30:37;;;;;;;19.42;12.45;;;;;;;;;;5072688;28;20472;-57
2021/01/04 06:33:09;;;;;;;24.05;15.10;;;;;;;;;;5072945;28;20040;-57
2021/01/04 06:35:36;;;;;;;26.20;15.90;;;;;;;;;;5072477;28;20113;-57
2021/01/04 06:38:13;;;;;;;21.88;14.57;;;;;;;;;;5072920;28;20029;-57
2021/01/04 06:40:43;;;;;;;23.85;14.65;;;;;;;;;;5072658;28;20026;-57
2021/01/04 06:43:10;;;;;;;21.15;13.73;;;;;;;;;;5072590;28;20087;-57
2021/01/04 06:45:42;;;;;;;22.95;13.35;;;;;;;;;;5072817;28;20028;-57
2021/01/04 06:48:12;;;;;;;22.95;13.38;;;;;;;;;;5072379;28;20024;-57
2021/01/04 06:50:43;;;;;;;23.38;13.68;;;;;;;;;;5072642;28;20032;-57
2021/01/04 06:53:21;;;;;;;17.02;11.32;;;;;;;;;;5072248;28;20036;-57
2021/01/04 06:56:06;;;;;;;23.33;14.40;;;;;;;;;;5072237;28;20476;-57
2021/01/04 06:58:50;;;;;;;25.75;13.98;;;;;;;;;;5059910;28;20057;-57
2021/01/04 07:01:19;;;;;;;22.67;13.70;;;;;;;;;;5072307;28;20499;-57
2021/01/04 07:03:45;;;;;;;30.83;17.35;;;;;;;;;;5072351;28;20028;-57
2021/01/04 07:06:17;;;;;;;18.95;12.02;;;;;;;;;;5071515;28;20046;-57
2021/01/04 07:08:43;;;;;;;;;;;;;;;;;;5072891;28;20024;-57
2021/01/04 07:11:28;;;;;;;18.30;11.25;;;;;;;;;;5072352;28;19908;-57
2021/01/04 07:14:15;;;;;;;18.08;11.05;;;;;;;;;;5072315;28;20044;-57
2021/01/04 07:16:56;;;;;;;21.10;12.13;;;;;;;;;;5041527;28;20717;-57
2021/01/04 07:19:25;;;;;;;22.95;12.05;;;;;;;;;;5072636;28;20361;-56
2021/01/04 07:22:00;;;;;;;18.95;10.70;;;;;;;;;;5072200;28;20028;-57
2021/01/04 07:24:45;;;;;;;17.65;9.60;;;;;;;;;;5072032;28;20143;-57
2021/01/04 07:27:21;;;;;;;16.20;9.98;;;;;;;;;;5071688;28;20048;-58
2021/01/04 07:29:50;;;;;;;15.85;10.30;;;;;;;;;;5072223;28;20032;-58
2021/01/04 07:32:23;;;;;;;15.82;9.68;;;;;;;;;;5072061;28;20040;-58
2021/01/04 07:34:50;;;;;;;15.90;10.05;;;;;;;;;;5064328;28;20074;-56
2021/01/04 07:37:35;;;;;;;14.88;9.93;;;;;;;;;;5072106;28;20100;-58
2021/01/04 07:40:01;;;;;;;16.65;10.23;;;;;;;;;;5071934;28;20055;-57
2021/01/04 07:42:47;;;;;;;17.73;10.38;;;;;;;;;;5070152;28;20437;-57
2021/01/04 07:45:31;;;;;;;20.05;10.35;;;;;;;;;;4990445;28;20034;-57
2021/01/04 07:48:03;;;;;;;19.85;11.02;;;;;;;;;;4990374;28;20034;-57
2021/01/04 07:50:46;;;;;;;17.35;10.75;;;;;;;;;;4990475;28;20038;-57
2021/01/04 07:53:11;;;;;;;;;;;;;;;;;;4990650;28;20050;-57
2021/01/04 07:55:38;;;;;;;20.58;13.05;;;;;;;;;;4990519;28;19946;-57
2021/01/04 07:58:22;;;;;;;18.52;11.80;;;;;;;;;;4990604;28;20052;-57
2021/01/04 08:01:04;;;;;;;18.77;11.57;;;;;;;;;;4990236;28;20447;-57
2021/01/04 08:03:48;;;;;;;19.17;12.17;;;;;;;;;;4990602;28;20113;-57
2021/01/04 08:06:23;;;;;;;19.65;12.27;;;;;;;;;;4990474;28;20272;-57
2021/01/04 08:09:07;;;;;;;21.55;11.70;;;;;;;;;;4990421;28;20042;-57
2021/01/04 08:11:45;;;;;;;22.73;13.23;;;;;;;;;;4990249;28;20850;-57
2021/01/04 08:14:29;;;;;;;25.75;15.35;;;;;;;;;;4990132;28;20081;-57
2021/01/04 08:16:58;;;;;;;25.55;15.60;;;;;;;;;;4990204;28;20496;-57
2021/01/04 08:19:25;;;;;;;21.08;13.30;;;;;;;;;;4990168;28;20057;-57
2021/01/04 08:21:56;;;;;;;26.65;15.55;;;;;;;;;;5014433;28;20063;-58
2021/01/04 08:24:38;;;;;;;29.65;16.80;;;;;;;;;;5074985;28;20127;-58
2021/01/04 08:27:11;;;;;;;35.55;18.08;;;;;;;;;;5075060;28;20039;-57
2021/01/04 08:29:51;;;;;;;25.55;14.48;;;;;;;;;;5075092;28;20349;-57
2021/01/04 08:32:20;;;;;;;24.70;14.93;;;;;;;;;;5074948;28;20040;-57
2021/01/04 08:34:47;;;;;;;30.00;17.17;;;;;;;;;;5074997;28;20025;-56
2021/01/04 08:37:15;;;;;;;27.08;15.98;;;;;;;;;;5074526;28;20032;-56
2021/01/04 08:39:41;;;;;;;24.23;15.45;;;;;;;;;;5074882;28;20384;-57
2021/01/04 08:42:14;;;;;;;35.38;19.70;;;;;;;;;;5075066;28;20046;-57
2021/01/04 08:44:40;;;;;;;37.85;23.67;;;;;;;;;;5074854;28;20150;-57
2021/01/04 08:47:10;;;;;;;29.50;17.23;;;;;;;;;;5074862;28;20376;-57
2021/01/04 08:49:41;;;;;;;30.33;19.27;;;;;;;;;;5074825;28;20125;-57
2021/01/04 08:52:15;;;;;;;22.45;14.73;;;;;;;;;;5074068;28;20036;-57
2021/01/04 08:54:41;;;;;;;29.35;18.23;;;;;;;;;;5074348;28;20028;-57
2021/01/04 08:57:12;;;;;;;40.70;22.65;;;;;;;;;;5074114;28;20028;-57
2021/01/04 08:59:38;;;;;;;37.53;20.02;;;;;;;;;;5074461;28;20035;-58
2021/01/04 09:02:24;;;;;;;33.63;17.90;;;;;;;;;;5074503;28;20031;-57
2021/01/04 09:05:01;;;;;;;35.03;18.33;;;;;;;;;;5074663;28;20103;-57
2021/01/04 09:07:27;;;;;;;32.67;19.58;;;;;;;;;;5074290;28;20024;-58
2021/01/04 09:09:58;;;;;;;25.35;15.68;;;;;;;;;;5074520;28;20082;-57
2021/01/04 09:12:26;;;;;;;24.02;15.70;;;;;;;;;;5056452;28;20682;-57
2021/01/04 09:14:54;;;;;;;18.23;12.63;;;;;;;;;;5074464;28;20020;-58
2021/01/04 09:17:23;;;;;;;23.15;15.32;;;;;;;;;;5074390;28;20555;-58
2021/01/04 09:19:50;;;;;;;22.85;15.32;;;;;;;;;;5074393;28;20024;-57
2021/01/04 09:22:21;;;;;;;23.02;15.57;;;;;;;;;;5073957;28;20062;-57
2021/01/04 09:24:47;;;;;;;21.05;15.07;;;;;;;;;;5073886;28;20514;-58
2021/01/04 09:27:27;;;;;;;23.27;15.35;;;;;;;;;;5074137;28;20118;-58
2021/01/04 09:29:55;;;;;;;20.30;13.43;;;;;;;;;;5061857;28;20031;-58
2021/01/04 09:32:27;;;;;;;18.80;12.35;;;;;;;;;;5074026;28;20024;-57
2021/01/04 09:34:53;;;;;;;;;;;;;;;;;;5073454;28;20060;-57
2021/01/04 09:37:24;;;;;;;23.83;15.55;;;;;;;;;;5073863;28;19950;-58
2021/01/04 09:39:52;;;;;;;21.83;13.73;;;;;;;;;;5073711;28;20051;-57
2021/01/04 09:42:24;;;;;;;24.33;17.23;;;;;;;;;;5074020;28;20446;-57
2021/01/04 09:44:50;;;;;;;22.48;14.20;;;;;;;;;;5073576;28;20023;-57
2021/01/04 09:47:19;;;;;;;16.65;11.68;;;;;;;;;;5073898;28;20029;-57
2021/01/04 09:49:47;;;;;;;18.40;12.30;;;;;;;;;;5073631;28;20036;-57
2021/01/04 09:52:20;;;;;;;17.73;11.63;;;;;;;;;;5071418;28;20151;-57
2021/01/04 09:54:48;;;;;;;16.50;11.35;;;;;;;;;;5073768;28;20025;-58
2021/01/04 09:57:19;;;;;;;17.17;12.50;;;;;;;;;;5073638;28;20036;-58
2021/01/04 09:59:45;;;;;;;19.50;12.90;;;;;;;;;;5064933;28;20027;-58
2021/01/04 10:02:22;;;;;;;22.65;13.93;;;;;;;;;;5073380;28;20024;-58
2021/01/04 10:04:48;;;;;;;24.70;14.63;;;;;;;;;;5073339;28;20084;-58
2021/01/04 10:07:27;;;;;;;23.30;14.45;;;;;;;;;;5076637;28;20468;-58
2021/01/04 10:09:53;;;;;;;19.90;13.13;;;;;;;;;;5073549;28;20067;-58
2021/01/04 10:12:23;;;;;;;21.17;13.63;;;;;;;;;;5073289;28;20128;-57
2021/01/04 10:14:51;;;;;;;25.05;16.48;;;;;;;;;;5073299;28;20028;-57
2021/01/04 10:17:17;;;;;;;20.70;13.38;;;;;;;;;;5070614;28;20150;-58
2021/01/04 10:19:47;;;;;;;21.92;15.65;;;;;;;;;;5074980;28;20027;-59
2021/01/04 10:22:20;;;;;;;20.25;14.30;;;;;;;;;;5072934;28;20143;-58
2021/01/04 10:24:46;;;;;;;20.58;13.00;;;;;;;;;;5070943;28;20044;-57
2021/01/04 10:27:15;;;;;;;18.73;12.93;;;;;;;;;;5071347;28;20028;-57
2021/01/04 10:29:42;;;;;;;18.33;12.55;;;;;;;;;;5068363;28;20025;-58
2021/01/04 10:32:19;;;;;;;18.67;13.20;;;;;;;;;;5057758;28;20031;-57
2021/01/04 10:34:46;;;;;;;33.88;23.23;;;;;;;;;;5056519;28;20029;-57
2021/01/04 10:37:20;;;;;;;22.67;14.70;;;;;;;;;;5052320;28;20045;-58
2021/01/04 10:39:47;;;;;;;24.60;14.90;;;;;;;;;;5058460;28;20375;-57
2021/01/04 10:42:21;;;;;;;27.27;16.52;;;;;;;;;;5054500;28;20384;-57
2021/01/04 10:44:47;;;;;;;31.38;18.55;;;;;;;;;;5055024;28;20095;-57
2021/01/04 10:47:20;;;;;;;27.42;16.73;;;;;;;;;;5053586;28;20395;-57
2021/01/04 10:49:46;;;;;;;22.60;16.08;;;;;;;;;;5056327;28;20021;-57
2021/01/04 10:52:23;;;;;;;22.80;15.55;;;;;;;;;;5054995;28;20041;-58
2021/01/04 10:54:50;;;;;;;21.40;15.07;;;;;;;;;;5055645;28;20029;-57
2021/01/04 10:57:21;;;;;;;21.52;15.70;;;;;;;;;;5070721;28;20476;-58
2021/01/04 11:00:06;;;;;;;26.88;18.33;;;;;;;;;;5070690;28;20029;-58
2021/01/04 11:02:45;;;;;;;19.65;14.50;;;;;;;;;;5070282;28;20032;-57
2021/01/04 11:05:13;;;;;;;25.95;17.50;;;;;;;;;;5070071;28;20027;-58
2021/01/04 11:07:39;;;;;;;21.80;16.15;;;;;;;;;;5070580;28;20035;-57
2021/01/04 11:10:09;;;;;;;19.55;13.85;;;;;;;;;;5072135;28;20361;-58
2021/01/04 11:12:44;;;;;;;29.63;19.10;;;;;;;;;;5072215;28;20029;-58
2021/01/04 11:15:10;;;;;;;34.15;23.63;;;;;;;;;;5064261;28;20021;-58
2021/01/04 11:17:37;;;;;;;58.55;38.17;;;;;;;;;;5053610;28;20451;-58
2021/01/04 11:20:06;;;;;;;21.17;14.52;;;;;;;;;;5070700;28;20472;-58
2021/01/04 11:22:32;;;;;;;13.02;8.52;;;;;;;;;;5063242;28;20059;-58
2021/01/04 11:25:00;;;;;;;13.50;9.23;;;;;;;;;;5071182;28;20116;-57
2021/01/04 11:27:26;;;;;;;13.55;9.85;;;;;;;;;;5058917;28;20035;-57
2021/01/04 11:29:52;;;;;;;13.15;9.70;;;;;;;;;;5071708;28;20060;-57
2021/01/04 11:32:19;;;;;;;16.90;11.60;;;;;;;;;;5072146;28;20033;-58
2021/01/04 11:34:50;;;;;;;17.55;12.43;;;;;;;;;;5058185;28;20366;-57
2021/01/04 11:37:17;;;;;;;24.88;14.73;;;;;;;;;;5061824;28;20025;-57
2021/01/04 11:39:43;;;;;;;18.10;12.43;;;;;;;;;;5071993;28;20096;-57
2021/01/04 11:42:09;;;;;;;18.00;11.45;;;;;;;;;;5071924;28;20020;-55
2021/01/04 11:44:35;;;;;;;16.67;11.95;;;;;;;;;;5072017;28;20071;-56
2021/01/04 11:47:02;;;;;;;15.52;11.75;;;;;;;;;;5071790;28;20024;-56
2021/01/04 11:49:28;;;;;;;18.58;13.05;;;;;;;;;;5067211;28;20104;-57
2021/01/04 11:51:55;;;;;;;19.98;13.90;;;;;;;;;;5071777;28;20025;-56
2021/01/04 11:54:21;;;;;;;23.13;16.33;;;;;;;;;;5071675;28;20060;-58
2021/01/04 11:56:48;;;;;;;30.92;22.45;;;;;;;;;;5072030;28;20388;-58
2021/01/04 11:59:14;;;;;;;17.58;13.60;;;;;;;;;;5076095;28;20027;-57
2021/01/04 12:01:40;;;;;;;16.75;11.63;;;;;;;;;;5066364;28;20021;-55
2021/01/04 12:04:06;;;;;;;22.88;16.88;;;;;;;;;;5041665;28;20369;-56
2021/01/04 12:06:32;;;;;;;21.55;15.68;;;;;;;;;;5056763;28;20483;-56
2021/01/04 12:08:59;;;;;;;13.45;10.23;;;;;;;;;;5057769;28;20021;-57
2021/01/04 12:11:25;;;;;;;13.95;9.20;;;;;;;;;;5057755;28;20027;-57
2021/01/04 12:13:51;;;;;;;14.93;10.23;;;;;;;;;;5058089;28;20037;-57
2021/01/04 12:16:18;;;;;;;21.23;12.75;;;;;;;;;;5075693;28;20419;-57
2021/01/04 12:18:44;;;;;;;15.93;11.60;;;;;;;;;;5075439;28;20032;-57
2021/01/04 12:21:13;;;;;;;15.35;10.13;;;;;;;;;;5064289;28;20024;-57
2021/01/04 12:23:40;;;;;;;36.92;23.20;;;;;;;;;;5074953;28;20032;-57
2021/01/04 12:26:06;;;;;;;53.25;33.90;;;;;;;;;;5074894;28;20025;-57
2021/01/04 12:28:32;;;;;;;38.63;25.48;;;;;;;;;;5071324;28;20518;-57
2021/01/04 12:30:58;;;;;;;26.35;17.85;;;;;;;;;;5073867;28;20020;-57
2021/01/04 12:33:24;;;;;;;33.15;22.15;;;;;;;;;;5071932;28;20160;-57
2021/01/04 12:35:50;;;;;;;29.10;20.70;;;;;;;;;;5061838;28;20028;-57
2021/01/04 12:38:16;;;;;;;31.88;22.60;;;;;;;;;;5063003;28;20415;-56
2021/01/04 12:40:42;;;;;;;80.57;58.47;;;;;;;;;;5058132;28;20017;-57
2021/01/04 12:43:08;;;;;;;71.10;43.88;;;;;;;;;;5059814;28;20384;-57
2021/01/04 12:45:35;;;;;;;45.38;27.73;;;;;;;;;;5062693;28;20059;-56
2021/01/04 12:48:01;;;;;;;183.30;96.88;;;;;;;;;;5063097;28;20020;-56
2021/01/04 12:50:27;;;;;;;153.35;79.70;;;;;;;;;;5061348;28;20051;-57
2021/01/04 12:52:53;;;;;;;72.30;43.50;;;;;;;;;;5060215;28;20036;-57
2021/01/04 12:55:20;;;;;;;49.63;33.17;;;;;;;;;;5073169;28;20036;-58
2021/01/04 12:57:47;;;;;;;30.83;21.80;;;;;;;;;;5074229;28;20035;-59
2021/01/04 13:00:21;;;;;;;22.55;15.75;;;;;;;;;;5056756;28;20498;-56
2021/01/04 13:02:47;;;;;;;52.42;32.65;;;;;;;;;;5067306;28;20033;-57
2021/01/04 13:05:14;;;;;;;34.90;21.40;;;;;;;;;;5074426;28;20028;-58
2021/01/04 13:07:40;;;;;;;32.85;22.15;;;;;;;;;;5074477;28;20472;-57
2021/01/04 13:10:08;;;;;;;31.77;22.02;;;;;;;;;;5074197;28;20464;-57
2021/01/04 13:12:34;;;;;;;47.33;31.45;;;;;;;;;;5074701;28;20036;-57
2021/01/04 13:15:00;;;;;;;75.63;45.92;;;;;;;;;;5074666;28;20098;-57
2021/01/04 13:17:26;;;;;;;74.70;44.10;;;;;;;;;;5074578;28;20024;-57
2021/01/04 13:19:52;;;;;;;67.95;43.50;;;;;;;;;;5072278;28;20052;-58
2021/01/04 13:22:19;;;;;;;69.40;42.85;;;;;;;;;;5060507;28;20059;-56
2021/01/04 13:24:45;;;;;;;119.85;70.72;;;;;;;;;;5068315;28;20041;-58
2021/01/04 13:27:11;;;;;;;105.07;64.55;;;;;;;;;;5058594;28;20032;-59
2021/01/04 13:29:37;;;;;;;111.75;70.25;;;;;;;;;;5055652;28;20025;-58
2021/01/04 13:32:05;;;;;;;105.40;63.25;;;;;;;;;;5038885;28;20086;-57
2021/01/04 13:34:31;;;;;;;94.03;59.47;;;;;;;;;;5059750;28;20104;-57
2021/01/04 13:36:57;;;;;;;90.30;53.72;;;;;;;;;;5072519;28;20021;-58
2021/01/04 13:39:24;;;;;;;97.82;57.38;;;;;;;;;;5073026;28;20078;-57
2021/01/04 13:41:54;;;;;;;81.55;50.58;;;;;;;;;;5069326;28;20428;-57
2021/01/04 13:44:21;;;;;;;71.82;46.70;;;;;;;;;;5059231;28;20025;-56
2021/01/04 13:46:47;;;;;;;77.40;49.15;;;;;;;;;;5071073;28;20020;-57
2021/01/04 13:49:13;;;;;;;73.82;47.35;;;;;;;;;;5052641;28;20388;-56
2021/01/04 13:51:44;;;;;;;77.53;48.78;;;;;;;;;;5066442;28;20025;-56
2021/01/04 13:54:10;;;;;;;79.50;52.45;;;;;;;;;;5063478;28;20044;-56
2021/01/04 13:56:36;;;;;;;93.00;56.55;;;;;;;;;;5071862;28;20107;-57
2021/01/04 13:59:02;;;;;;;84.90;53.00;;;;;;;;;;5072447;28;20384;-57
2021/01/04 14:01:28;;;;;;;82.50;51.65;;;;;;;;;;5062178;28;20050;-55
2021/01/04 14:03:57;;;;;;;88.97;57.03;;;;;;;;;;5060151;28;20025;-56
2021/01/04 14:06:23;;;;;;;98.78;61.05;;;;;;;;;;5059324;28;20017;-57
2021/01/04 14:08:49;;;;;;;104.25;63.67;;;;;;;;;;5070006;28;20030;-57
2021/01/04 14:11:19;;;;;;;183.88;109.82;;;;;;;;;;5062478;28;20020;-56
2021/01/04 14:13:46;;;;;;;174.15;107.53;;;;;;;;;;5056029;28;20029;-56
2021/01/04 14:16:12;;;;;;;128.88;82.95;;;;;;;;;;5052809;28;20468;-54
2021/01/04 14:18:38;;;;;;;123.85;80.20;;;;;;;;;;5070025;28;20032;-56
2021/01/04 14:21:05;;;;;;;128.05;81.40;;;;;;;;;;5071312;28;20021;-56
2021/01/04 14:23:31;;;;;;;128.18;79.72;;;;;;;;;;5071866;28;20035;-56
2021/01/04 14:25:57;;;;;;;114.78;70.28;;;;;;;;;;5049383;28;663035;-57
2021/01/04 14:28:23;;;;;;;170.73;99.22;;;;;;;;;;5072939;28;20043;-57
2021/01/04 14:30:49;;;;;;;180.07;106.20;;;;;;;;;;5072976;28;20032;-56
2021/01/04 14:33:15;;;;;;;192.40;133.23;;;;;;;;;;5072862;28;20119;-57
2021/01/04 14:35:41;;;;;;;157.77;103.28;;;;;;;;;;5072743;28;20020;-58
2021/01/04 14:38:08;;;;;;;128.82;82.53;;;;;;;;;;5072969;28;20104;-58